STR weather

Stuttgart Airport
Stuttgart, Baden-W├╝rttemberg, Germany

Public forecast

Using degrees Celsius for public forecast. Weather courtesy of forecast.io.

METAR (pilot weather report)

Retrieved 2019/03/24 10:20 UTC (10 minutes ago):

EDDS 241020Z 07003KT 350V120 8000 NSC 12/06 Q1023 NOSIG

TAF (pilot weather forecast)

Retrieved 2019/03/24 06:37 UTC (4 hours ago):

TAF EDDS 240500Z 2406/2506 VRB03KT CAVOK TEMPO 2406/2408 3500 BR BECMG 2408/2410 32005KT BECMG 2411/2413 32010KT BECMG 2418/2421 30005KT